createdAt,value
2018-09-14T00:00:19.438Z,80.06
2018-09-14T00:02:50.073Z,80.28
2018-09-14T00:05:22.012Z,80.91
2018-09-14T00:07:53.025Z,80.55
2018-09-14T00:10:24.919Z,80.45
2018-09-14T00:12:54.799Z,81.18
2018-09-14T00:15:24.800Z,80.31
2018-09-14T00:17:55.097Z,80.95
2018-09-14T00:20:25.513Z,80.52
2018-09-14T00:22:55.541Z,79.90
2018-09-14T00:25:25.770Z,81.00
2018-09-14T00:27:56.868Z,80.54
2018-09-14T00:30:29.771Z,80.39
2018-09-14T00:33:02.852Z,80.83
2018-09-14T00:35:32.991Z,81.11
2018-09-14T00:38:02.998Z,81.61
2018-09-14T00:40:35.082Z,81.84
2018-09-14T00:43:06.082Z,81.48
2018-09-14T00:45:36.225Z,80.88
2018-09-14T00:48:06.803Z,81.44
2018-09-14T00:50:38.745Z,81.35
2018-09-14T00:53:09.048Z,81.26
2018-09-14T00:55:39.588Z,80.83
2018-09-14T00:58:10.180Z,80.18
2018-09-14T01:00:40.637Z,80.39
2018-09-14T01:03:14.133Z,80.57
2018-09-14T01:05:44.723Z,79.86
2018-09-14T01:08:14.756Z,79.62
2018-09-14T01:10:45.689Z,80.11
2018-09-14T01:13:17.285Z,79.79
2018-09-14T01:15:47.363Z,80.02
2018-09-14T01:18:17.541Z,80.17
2018-09-14T01:20:47.855Z,79.91
2018-09-14T01:23:17.888Z,80.02
2018-09-14T01:25:49.540Z,79.61
2018-09-14T01:28:22.046Z,80.07
2018-09-14T01:30:53.140Z,80.42
2018-09-14T01:33:25.316Z,81.72
2018-09-14T01:36:00.090Z,81.75
2018-09-14T01:38:31.807Z,81.22
2018-09-14T01:41:02.313Z,81.52
2018-09-14T01:43:32.403Z,82.26
2018-09-14T01:46:05.278Z,82.32
2018-09-14T01:48:35.893Z,82.39
2018-09-14T01:51:06.408Z,81.19
2018-09-14T01:53:37.674Z,81.97
2018-09-14T01:56:07.823Z,82.69
2018-09-14T01:58:37.848Z,82.12
2018-09-14T02:01:08.138Z,82.63
2018-09-14T02:03:39.474Z,82.91
2018-09-14T02:06:12.264Z,83.19
2018-09-14T02:08:42.942Z,83.32
2018-09-14T02:11:13.021Z,83.34
2018-09-14T02:13:44.977Z,83.98
2018-09-14T02:16:16.013Z,83.50
2018-09-14T02:18:46.244Z,84.39
2018-09-14T02:21:17.797Z,84.54
2018-09-14T02:23:50.171Z,84.10
2018-09-14T02:26:20.586Z,83.92
2018-09-14T02:28:51.055Z,84.53
2018-09-14T02:31:22.704Z,83.74
2018-09-14T02:33:52.582Z,82.46
2018-09-14T02:36:22.660Z,83.38
2018-09-14T02:38:54.119Z,82.59
2018-09-14T02:41:24.705Z,82.21
2018-09-14T02:43:57.161Z,81.75
2018-09-14T02:46:30.045Z,82.18
2018-09-14T02:48:59.914Z,82.22
2018-09-14T02:51:29.768Z,82.13
2018-09-14T02:53:59.479Z,82.26
2018-09-14T02:56:30.709Z,82.11
2018-09-14T02:59:00.836Z,82.35
2018-09-14T03:01:30.773Z,80.90
2018-09-14T03:04:01.218Z,81.49
2018-09-14T03:06:33.658Z,80.90
2018-09-14T03:09:05.225Z,81.00
2018-09-14T03:11:37.606Z,80.87
2018-09-14T03:14:10.286Z,81.02
2018-09-14T03:16:42.696Z,81.41
2018-09-14T03:19:12.920Z,80.59
2018-09-14T03:21:44.137Z,80.73
2018-09-14T03:24:14.216Z,81.18
2018-09-14T03:26:44.186Z,80.99
2018-09-14T03:29:15.729Z,81.25
2018-09-14T03:31:45.696Z,81.37
2018-09-14T03:34:15.640Z,80.99
2018-09-14T03:36:46.062Z,81.81
2018-09-14T03:39:15.982Z,81.99
2018-09-14T03:41:46.162Z,81.19
2018-09-14T03:44:16.285Z,81.04
2018-09-14T03:46:46.205Z,80.82
2018-09-14T03:49:16.729Z,80.70
2018-09-14T03:51:48.706Z,81.77
2018-09-14T03:54:21.262Z,81.27
2018-09-14T03:56:54.261Z,81.88
2018-09-14T03:59:24.275Z,81.06
2018-09-14T04:01:54.841Z,81.44
2018-09-14T04:04:27.233Z,80.85
2018-09-14T04:06:57.331Z,82.18
2018-09-14T04:09:27.415Z,82.12
2018-09-14T04:11:57.728Z,81.32
2018-09-14T04:14:27.978Z,81.66
2018-09-14T04:17:01.653Z,81.37
2018-09-14T04:19:32.084Z,81.25
2018-09-14T04:22:02.637Z,81.91
2018-09-14T04:24:32.572Z,81.43
2018-09-14T04:27:02.692Z,82.03
2018-09-14T04:29:32.868Z,81.62
2018-09-14T04:32:03.805Z,82.62
2018-09-14T04:34:33.822Z,82.71
2018-09-14T04:37:04.214Z,82.20
2018-09-14T04:39:34.101Z,81.67
2018-09-14T04:42:04.195Z,81.86
2018-09-14T04:44:35.215Z,81.21
2018-09-14T04:47:05.229Z,81.61
2018-09-14T04:49:37.689Z,82.17
2018-09-14T04:52:08.953Z,82.32
2018-09-14T04:54:39.015Z,82.46
2018-09-14T04:57:10.389Z,82.57
2018-09-14T04:59:42.252Z,82.19
2018-09-14T05:02:12.617Z,82.85
2018-09-14T05:04:42.795Z,81.96
2018-09-14T05:07:13.174Z,81.56
2018-09-14T05:09:43.625Z,81.90
2018-09-14T05:12:17.009Z,81.52
2018-09-14T05:14:51.553Z,81.64
2018-09-14T05:17:24.515Z,82.20
2018-09-14T05:19:54.704Z,81.59
2018-09-14T05:22:26.664Z,80.67
2018-09-14T05:24:57.024Z,80.52
2018-09-14T05:27:29.049Z,80.83
2018-09-14T05:29:59.806Z,81.34
2018-09-14T05:32:30.027Z,79.99
2018-09-14T05:35:03.021Z,80.64
2018-09-14T05:37:33.173Z,80.74
2018-09-14T05:40:03.951Z,81.73
2018-09-14T05:42:34.108Z,80.91
2018-09-14T05:45:04.831Z,81.48
2018-09-14T05:47:35.241Z,81.10
2018-09-14T05:50:05.474Z,80.80
2018-09-14T05:52:35.774Z,80.21
2018-09-14T05:55:05.894Z,80.74
2018-09-14T05:57:36.344Z,80.62
2018-09-14T06:00:06.648Z,80.49
2018-09-14T06:02:36.712Z,80.77
2018-09-14T06:05:07.391Z,79.98
2018-09-14T06:07:37.548Z,80.44
2018-09-14T06:10:09.089Z,79.90
2018-09-14T06:12:39.099Z,80.13
2018-09-14T06:15:10.891Z,79.93
2018-09-14T06:17:41.738Z,79.26
2018-09-14T06:20:11.753Z,78.99
2018-09-14T06:22:44.847Z,79.18
2018-09-14T06:25:15.045Z,79.50
2018-09-14T06:27:48.752Z,78.38
2018-09-14T06:30:20.129Z,78.48
2018-09-14T06:32:51.725Z,78.79
2018-09-14T06:35:21.739Z,78.15
2018-09-14T06:37:52.669Z,78.88
2018-09-14T06:40:22.900Z,78.62
2018-09-14T06:42:55.473Z,77.70
2018-09-14T06:45:26.462Z,77.89
2018-09-14T06:47:57.076Z,78.54
2018-09-14T06:50:28.570Z,78.17
2018-09-14T06:53:00.576Z,77.84
2018-09-14T06:55:31.178Z,79.06
2018-09-14T06:58:01.206Z,78.69
2018-09-14T07:00:31.411Z,77.96
2018-09-14T07:03:02.479Z,77.38
2018-09-14T07:05:33.920Z,77.49
2018-09-14T07:08:04.000Z,78.20
2018-09-14T07:10:34.246Z,77.70
2018-09-14T07:13:06.321Z,77.27
2018-09-14T07:15:37.959Z,76.64
2018-09-14T07:18:08.421Z,76.69
2018-09-14T07:20:38.582Z,76.57
2018-09-14T07:23:08.758Z,76.56
2018-09-14T07:25:38.871Z,76.95
2018-09-14T07:28:09.870Z,77.25
2018-09-14T07:30:40.139Z,76.33
2018-09-14T07:33:10.375Z,75.91
2018-09-14T07:37:29.213Z,76.99
2018-09-14T07:40:00.070Z,76.38
2018-09-14T07:42:30.960Z,75.61
2018-09-14T07:45:00.779Z,75.29
2018-09-14T07:47:32.002Z,75.87
2018-09-14T07:50:05.456Z,74.68
2018-09-14T07:52:35.483Z,73.59
2018-09-14T07:55:06.389Z,72.76
2018-09-14T07:57:36.613Z,71.63
2018-09-14T08:00:07.782Z,71.12
2018-09-14T08:02:38.370Z,71.67
2018-09-14T08:05:08.488Z,70.69
2018-09-14T08:07:39.548Z,69.96
2018-09-14T08:10:10.115Z,71.51
2018-09-14T08:12:40.784Z,70.77
2018-09-14T08:15:10.974Z,69.77
2018-09-14T08:17:40.990Z,68.60
2018-09-14T08:20:11.273Z,68.29
2018-09-14T08:22:42.097Z,69.20
2018-09-14T08:25:12.408Z,67.76
2018-09-14T08:27:42.420Z,68.14
2018-09-14T08:30:13.219Z,67.44
2018-09-14T08:32:43.827Z,66.32
2018-09-14T08:35:13.727Z,66.05
2018-09-14T08:37:43.931Z,67.59
2018-09-14T08:40:14.263Z,67.06
2018-09-14T08:42:44.247Z,66.72
2018-09-14T08:45:14.810Z,68.13
2018-09-14T08:47:44.730Z,68.05
2018-09-14T08:50:15.449Z,67.52
2018-09-14T08:52:46.301Z,65.95
2018-09-14T08:55:17.792Z,65.72
2018-09-14T08:57:48.141Z,65.80
2018-09-14T09:00:22.486Z,67.95
2018-09-14T09:02:57.469Z,66.43
2018-09-14T09:05:27.755Z,65.06
2018-09-14T09:07:57.762Z,66.70
2018-09-14T09:10:27.967Z,65.37
2018-09-14T09:12:58.345Z,63.97
2018-09-14T09:15:30.257Z,64.04
2018-09-14T09:18:00.581Z,62.83
2018-09-14T09:20:31.394Z,62.90
2018-09-14T09:23:02.359Z,62.26
2018-09-14T09:25:32.286Z,62.26
2018-09-14T09:28:02.500Z,64.00
2018-09-14T09:30:33.152Z,62.19
2018-09-14T09:33:03.469Z,62.67
2018-09-14T09:35:33.669Z,62.62
2018-09-14T09:38:04.807Z,62.82
2018-09-14T09:40:34.776Z,62.36
2018-09-14T09:43:04.999Z,62.97
2018-09-14T09:45:35.095Z,63.66
2018-09-14T09:48:09.178Z,62.15
2018-09-14T09:50:39.431Z,62.51
2018-09-14T09:53:10.245Z,62.94
2018-09-14T09:55:40.447Z,62.10
2018-09-14T09:58:11.241Z,62.91
2018-09-14T10:00:43.977Z,62.94
2018-09-14T10:03:21.022Z,62.04
2018-09-14T10:06:01.477Z,62.96
2018-09-14T10:08:31.523Z,61.22
2018-09-14T10:11:01.658Z,59.66
2018-09-14T10:13:32.107Z,59.21
2018-09-14T10:16:01.956Z,58.66
2018-09-14T10:18:32.143Z,58.27
2018-09-14T10:21:02.874Z,57.91
2018-09-14T10:23:32.883Z,57.01
2018-09-14T10:26:02.843Z,57.79
2018-09-14T10:28:32.886Z,56.85
2018-09-14T10:31:03.341Z,56.80
2018-09-14T10:33:34.512Z,57.39
2018-09-14T10:36:05.314Z,56.55
2018-09-14T10:38:35.587Z,56.18
2018-09-14T10:41:05.780Z,55.04
2018-09-14T10:43:35.879Z,55.08
2018-09-14T10:46:07.100Z,55.12
2018-09-14T10:48:39.884Z,55.06
2018-09-14T10:51:10.673Z,54.48
2018-09-14T10:53:42.076Z,52.70
2018-09-14T10:56:12.654Z,52.97
2018-09-14T10:58:45.471Z,52.97
2018-09-14T11:01:17.355Z,53.97
2018-09-14T11:03:47.966Z,53.18
2018-09-14T11:06:18.448Z,53.28
2018-09-14T11:08:48.660Z,53.44
2018-09-14T11:11:23.601Z,52.71
2018-09-14T11:13:54.551Z,53.68
2018-09-14T11:16:24.773Z,50.97
2018-09-14T11:18:54.777Z,51.87
2018-09-14T11:21:24.897Z,52.61
2018-09-14T11:23:55.109Z,50.73
2018-09-14T11:26:26.180Z,51.83
2018-09-14T11:29:00.224Z,51.42
2018-09-14T11:31:33.982Z,51.40
2018-09-14T11:34:07.454Z,50.58
2018-09-14T11:36:38.592Z,50.25
2018-09-14T11:39:12.670Z,51.05
2018-09-14T11:41:44.332Z,50.83
2018-09-14T11:44:18.567Z,51.06
2018-09-14T11:46:49.453Z,50.93
2018-09-14T11:49:20.088Z,51.79
2018-09-14T11:51:50.966Z,50.11
2018-09-14T11:54:21.264Z,49.77
2018-09-14T11:56:51.234Z,49.48
2018-09-14T11:59:21.440Z,49.35
2018-09-14T12:01:52.136Z,49.66
2018-09-14T12:04:24.634Z,50.63
2018-09-14T12:20:20.698Z,52.79
2018-09-14T12:22:51.237Z,53.01
2018-09-14T12:25:22.107Z,51.92
2018-09-14T12:27:53.255Z,52.89
2018-09-14T12:30:23.393Z,52.55
2018-09-14T12:32:54.526Z,51.51
2018-09-14T12:35:24.936Z,51.67
2018-09-14T12:37:56.414Z,52.62
2018-09-14T12:43:11.412Z,52.21
2018-09-14T12:45:42.671Z,51.93
2018-09-14T12:48:13.153Z,53.00
2018-09-14T12:50:47.454Z,51.86
2018-09-14T12:53:19.960Z,50.46
2018-09-14T12:55:51.495Z,51.51
2018-09-14T12:58:23.684Z,50.46
2018-09-14T13:00:57.090Z,49.95
2018-09-14T13:03:28.185Z,49.56
2018-09-14T13:06:00.066Z,53.36
2018-09-14T13:08:30.800Z,50.26
2018-09-14T13:11:05.098Z,50.78
2018-09-14T13:13:36.493Z,50.62
2018-09-14T13:16:10.012Z,51.02
2018-09-14T13:18:40.479Z,51.40
2018-09-14T13:21:11.100Z,52.11
2018-09-14T13:23:41.173Z,52.11
2018-09-14T13:26:11.501Z,52.29
2018-09-14T13:28:41.690Z,51.25
2018-09-14T13:31:11.889Z,51.85
2018-09-14T13:33:42.188Z,52.28
2018-09-14T13:36:14.539Z,52.35
2018-09-14T13:38:45.080Z,52.09
2018-09-14T13:41:15.040Z,52.50
2018-09-14T13:43:45.393Z,52.30
2018-09-14T13:46:15.628Z,52.15
2018-09-14T13:48:46.572Z,52.17
2018-09-14T13:51:16.557Z,51.63
2018-09-14T13:53:47.231Z,51.60
2018-09-14T13:56:17.668Z,52.05
2018-09-14T13:58:48.078Z,51.99
2018-09-14T14:01:18.311Z,52.11
2018-09-14T14:03:48.401Z,50.88
2018-09-14T14:06:18.941Z,50.57
2018-09-14T14:08:48.995Z,51.00
2018-09-14T14:11:18.916Z,50.58
2018-09-14T14:13:52.249Z,50.82
2018-09-14T14:16:22.467Z,50.58
2018-09-14T14:18:52.582Z,49.83
2018-09-14T14:21:22.734Z,50.36
2018-09-14T14:23:54.060Z,49.99
2018-09-14T14:26:24.462Z,49.10
2018-09-14T14:28:54.592Z,49.63
2018-09-14T14:31:24.853Z,49.91
2018-09-14T14:33:55.401Z,49.83
2018-09-14T14:36:25.868Z,49.33
2018-09-14T14:38:56.098Z,50.15
2018-09-14T14:41:29.823Z,49.18
2018-09-14T14:44:01.004Z,49.93
2018-09-14T14:46:31.552Z,49.28
2018-09-14T14:49:02.205Z,48.72
2018-09-14T14:51:32.179Z,49.55
2018-09-14T14:54:04.654Z,49.02
2018-09-14T14:56:36.571Z,49.72
2018-09-14T14:59:07.950Z,49.31
2018-09-14T15:01:37.864Z,48.31
2018-09-14T15:04:10.034Z,49.21
2018-09-14T15:06:42.326Z,49.43
2018-09-14T15:09:12.221Z,49.26
2018-09-14T15:11:43.160Z,48.65
2018-09-14T15:14:12.779Z,49.29
2018-09-14T15:16:42.485Z,48.73
2018-09-14T15:19:13.089Z,49.08
2018-09-14T15:21:44.419Z,49.78
2018-09-14T15:24:18.000Z,48.07
2018-09-14T15:26:47.834Z,49.90
2018-09-14T15:29:17.872Z,48.23
2018-09-14T15:31:49.406Z,49.39
2018-09-14T15:34:20.447Z,49.24
2018-09-14T15:36:51.190Z,49.80
2018-09-14T15:39:21.763Z,49.41
2018-09-14T15:41:51.549Z,50.08
2018-09-14T15:44:21.155Z,51.78
2018-09-14T15:46:51.010Z,52.48
2018-09-14T15:49:20.756Z,52.11
2018-09-14T15:51:52.902Z,53.34
2018-09-14T15:54:23.183Z,53.01
2018-09-14T15:56:55.458Z,53.01
2018-09-14T15:59:26.540Z,54.19
2018-09-14T16:01:57.634Z,54.24
2018-09-14T16:04:27.686Z,53.86
2018-09-14T16:06:58.376Z,54.43
2018-09-14T16:09:28.382Z,54.74
2018-09-14T16:12:00.864Z,54.69
2018-09-14T16:14:33.261Z,53.75
2018-09-14T16:17:04.483Z,53.91
2018-09-14T16:19:35.681Z,54.05
2018-09-14T16:22:05.536Z,55.00
2018-09-14T16:24:35.985Z,55.81
2018-09-14T16:27:06.843Z,53.42
2018-09-14T16:29:38.424Z,53.35
2018-09-14T16:32:08.509Z,54.85
2018-09-14T16:34:38.522Z,53.98
2018-09-14T16:37:14.529Z,54.92
2018-09-14T16:39:44.914Z,55.01
2018-09-14T16:42:16.839Z,55.58
2018-09-14T16:44:47.823Z,55.46
2018-09-14T16:47:22.085Z,55.76
2018-09-14T16:49:57.593Z,54.92
2018-09-14T16:52:29.323Z,55.95
2018-09-14T16:54:59.557Z,55.07
2018-09-14T16:57:29.548Z,55.17
2018-09-14T16:59:59.872Z,55.72
2018-09-14T17:02:32.456Z,56.95
2018-09-14T17:05:02.568Z,55.53
2018-09-14T17:07:32.834Z,55.81
2018-09-14T17:10:02.687Z,55.59
2018-09-14T17:12:34.253Z,56.24
2018-09-14T17:15:04.218Z,56.19
2018-09-14T17:17:35.000Z,56.58
2018-09-14T17:20:07.330Z,56.29
2018-09-14T17:22:37.423Z,56.97
2018-09-14T17:25:07.887Z,56.96
2018-09-14T17:27:37.873Z,56.10
2018-09-14T17:30:10.955Z,56.58
2018-09-14T17:32:40.885Z,56.77
2018-09-14T17:35:11.080Z,55.90
2018-09-14T17:37:40.924Z,56.38
2018-09-14T17:40:12.838Z,56.09
2018-09-14T17:42:43.214Z,56.21
2018-09-14T17:45:13.286Z,56.25
2018-09-14T17:47:44.959Z,56.69
2018-09-14T17:50:15.512Z,57.51
2018-09-14T17:52:45.532Z,57.37
2018-09-14T17:55:15.363Z,56.64
2018-09-14T17:57:46.669Z,56.70
2018-09-14T18:00:17.182Z,56.98
2018-09-14T18:02:50.446Z,57.44
2018-09-14T18:05:21.081Z,57.88
2018-09-14T18:07:51.624Z,57.32
2018-09-14T18:10:21.564Z,58.04
2018-09-14T18:12:52.135Z,57.98
2018-09-14T18:15:23.950Z,58.41
2018-09-14T18:17:55.708Z,58.35
2018-09-14T18:20:25.807Z,57.85
2018-09-14T18:22:55.807Z,58.19
2018-09-14T18:25:25.950Z,58.48
2018-09-14T18:27:58.392Z,58.36
2018-09-14T18:30:28.993Z,57.29
2018-09-14T18:32:59.830Z,58.19
2018-09-14T18:35:30.252Z,58.08
2018-09-14T18:38:00.875Z,58.09
2018-09-14T18:40:32.121Z,58.24
2018-09-14T18:43:06.174Z,58.26
2018-09-14T18:45:36.401Z,58.09
2018-09-14T18:48:08.925Z,57.34
2018-09-14T18:50:39.081Z,58.28
2018-09-14T18:53:09.143Z,59.14
2018-09-14T18:55:39.179Z,57.72
2018-09-14T18:58:09.271Z,57.79
2018-09-14T19:00:40.382Z,57.64
2018-09-14T19:03:12.800Z,57.55
2018-09-14T19:05:44.969Z,57.29
2018-09-14T19:08:15.548Z,57.86
2018-09-14T19:10:46.021Z,58.03
2018-09-14T19:13:16.260Z,58.00
2018-09-14T19:18:31.695Z,57.97
2018-09-14T19:21:01.763Z,58.04
2018-09-14T19:23:33.176Z,58.68
2018-09-14T19:26:06.194Z,58.66
2018-09-14T19:28:40.204Z,57.88
2018-09-14T19:31:10.601Z,58.40
2018-09-14T19:33:41.443Z,59.47
2018-09-14T19:36:12.191Z,59.44
2018-09-14T19:38:43.253Z,59.80
2018-09-14T19:41:13.453Z,60.56
2018-09-14T19:43:45.699Z,60.77
2018-09-14T19:46:19.241Z,60.48
2018-09-14T19:48:52.636Z,60.25
2018-09-14T19:51:22.798Z,60.64
2018-09-14T19:53:54.662Z,61.25
2018-09-14T19:56:24.720Z,60.44
2018-09-14T19:58:56.041Z,61.19
2018-09-14T20:01:25.961Z,60.67
2018-09-14T20:04:01.553Z,60.63
2018-09-14T20:06:31.805Z,61.47
2018-09-14T20:09:02.037Z,60.67
2018-09-14T20:11:32.356Z,60.55
2018-09-14T20:14:02.394Z,60.77
2018-09-14T20:16:32.501Z,60.20
2018-09-14T20:19:04.675Z,61.49
2018-09-14T20:21:34.971Z,61.58
2018-09-14T20:24:04.993Z,61.22
2018-09-14T20:26:35.101Z,61.35
2018-09-14T20:29:05.562Z,61.22
2018-09-14T20:31:35.835Z,61.38
2018-09-14T20:34:05.901Z,61.13
2018-09-14T20:36:36.450Z,61.61
2018-09-14T20:39:14.286Z,61.73
2018-09-14T20:41:44.350Z,61.84
2018-09-14T20:44:14.243Z,61.56
2018-09-14T20:46:46.756Z,61.19
2018-09-14T20:49:17.170Z,61.22
2018-09-14T20:51:47.314Z,61.50
2018-09-14T20:54:27.854Z,61.46
2018-09-14T20:56:59.752Z,61.87
2018-09-14T20:59:29.789Z,61.30
2018-09-14T21:02:05.491Z,60.99
2018-09-14T21:04:39.230Z,61.61
2018-09-14T21:07:09.877Z,61.92
2018-09-14T21:09:49.057Z,61.95
2018-09-14T21:12:21.437Z,61.49
2018-09-14T21:14:51.640Z,62.02
2018-09-14T21:17:22.295Z,61.44
2018-09-14T21:19:53.102Z,61.57
2018-09-14T21:22:23.433Z,61.69
2018-09-14T21:24:57.657Z,62.13
2018-09-14T21:27:28.250Z,62.48
2018-09-14T21:29:58.177Z,62.46
2018-09-14T21:32:28.772Z,62.93
2018-09-14T21:35:00.648Z,62.86
2018-09-14T21:37:30.681Z,62.33
2018-09-14T21:40:01.344Z,62.61
2018-09-14T21:42:32.137Z,62.44
2018-09-14T21:45:02.462Z,62.62
2018-09-14T21:47:34.408Z,63.92
2018-09-14T21:50:04.535Z,63.21
2018-09-14T21:52:37.110Z,63.47
2018-09-14T21:55:07.216Z,63.37
2018-09-14T21:57:41.338Z,63.62
2018-09-14T22:00:18.780Z,64.39
2018-09-14T22:02:49.268Z,63.79
2018-09-14T22:05:19.133Z,63.86
2018-09-14T22:07:50.618Z,63.70
2018-09-14T22:10:21.910Z,64.93
2018-09-14T22:12:52.226Z,64.20
2018-09-14T22:15:23.349Z,64.95
2018-09-14T22:17:54.375Z,64.96
2018-09-14T22:20:26.247Z,65.30
2018-09-14T22:22:56.460Z,65.35
2018-09-14T22:25:28.832Z,65.26
2018-09-14T22:28:02.045Z,65.32
2018-09-14T22:30:34.495Z,64.85
2018-09-14T22:33:05.876Z,65.05
2018-09-14T22:35:39.168Z,66.16
2018-09-14T22:38:09.755Z,66.20
2018-09-14T22:40:43.931Z,66.96
2018-09-14T22:43:14.097Z,65.59
2018-09-14T22:45:44.208Z,66.37
2018-09-14T22:49:44.495Z,67.15
2018-09-14T22:52:15.066Z,66.43
2018-09-14T22:54:48.298Z,66.61
2018-09-14T22:57:18.535Z,67.24
2018-09-14T22:59:54.659Z,67.41
2018-09-14T23:02:24.672Z,67.17
2018-09-14T23:04:54.791Z,67.72
2018-09-14T23:07:24.816Z,68.24
2018-09-14T23:09:54.754Z,68.28
2018-09-14T23:12:27.196Z,68.45
2018-09-14T23:14:57.522Z,68.43
2018-09-14T23:17:27.741Z,68.28
2018-09-14T23:19:58.709Z,68.93
2018-09-14T23:22:29.826Z,68.75
2018-09-14T23:25:00.531Z,69.20
2018-09-14T23:27:30.474Z,69.72
2018-09-14T23:30:00.581Z,69.16
2018-09-14T23:32:30.802Z,68.75
2018-09-14T23:35:03.394Z,69.38
2018-09-14T23:37:33.634Z,69.02
2018-09-14T23:40:05.466Z,69.40
2018-09-14T23:42:36.141Z,70.03
2018-09-14T23:45:06.844Z,69.46
2018-09-14T23:47:36.851Z,69.14
2018-09-14T23:50:08.323Z,70.13
2018-09-14T23:52:38.367Z,69.55
2018-09-14T23:55:10.627Z,69.28
2018-09-14T23:57:40.595Z,69.92
